sensor_id;sensor_type;location;lat;lon;timestamp;pressure;altitude;pressure_sealevel;temperature;humidity
38054;BME280;23859;50.672;7.164;2022-08-01T00:01:38;100754.25;;;23.34;67.11
38054;BME280;23859;50.672;7.164;2022-08-01T00:04:04;100653.63;;;22.73;67.19
38054;BME280;23859;50.672;7.164;2022-08-01T00:06:30;100733.84;;;23.19;67.42
38054;BME280;23859;50.672;7.164;2022-08-01T00:08:57;100750.91;;;23.32;67.01
38054;BME280;23859;50.672;7.164;2022-08-01T00:11:23;100755.09;;;23.28;67.23
38054;BME280;23859;50.672;7.164;2022-08-01T00:13:49;100740.91;;;23.26;67.14
38054;BME280;23859;50.672;7.164;2022-08-01T00:16:15;100748.63;;;23.23;67.54
38054;BME280;23859;50.672;7.164;2022-08-01T00:18:41;100742.59;;;23.14;67.67
38054;BME280;23859;50.672;7.164;2022-08-01T00:21:07;100737.84;;;23.10;68.08
38054;BME280;23859;50.672;7.164;2022-08-01T00:23:34;100747.25;;;23.01;68.57
38054;BME280;23859;50.672;7.164;2022-08-01T00:26:00;100742.00;;;22.99;68.64
38054;BME280;23859;50.672;7.164;2022-08-01T00:28:26;100748.28;;;23.06;68.54
38054;BME280;23859;50.672;7.164;2022-08-01T00:30:52;100743.69;;;23.13;68.47
38054;BME280;23859;50.672;7.164;2022-08-01T00:33:18;100747.41;;;22.99;69.27
38054;BME280;23859;50.672;7.164;2022-08-01T00:35:44;100706.81;;;22.74;69.15
38054;BME280;23859;50.672;7.164;2022-08-01T00:38:10;100744.53;;;23.01;68.55
38054;BME280;23859;50.672;7.164;2022-08-01T00:40:37;100748.69;;;23.10;68.26
38054;BME280;23859;50.672;7.164;2022-08-01T00:43:03;100741.41;;;22.97;68.90
38054;BME280;23859;50.672;7.164;2022-08-01T00:45:29;100745.78;;;22.92;69.54
38054;BME280;23859;50.672;7.164;2022-08-01T00:47:55;100748.69;;;23.03;68.66
38054;BME280;23859;50.672;7.164;2022-08-01T00:50:21;100752.47;;;23.02;68.64
38054;BME280;23859;50.672;7.164;2022-08-01T00:52:47;100748.69;;;23.03;68.76
38054;BME280;23859;50.672;7.164;2022-08-01T00:55:13;100733.69;;;23.07;68.32
38054;BME280;23859;50.672;7.164;2022-08-01T00:57:41;100736.16;;;23.09;68.54
38054;BME280;23859;50.672;7.164;2022-08-01T01:00:07;100738.28;;;23.00;68.97
38054;BME280;23859;50.672;7.164;2022-08-01T01:02:34;100742.84;;;23.00;69.08
38054;BME280;23859;50.672;7.164;2022-08-01T01:05:01;100739.94;;;23.01;68.93
38054;BME280;23859;50.672;7.164;2022-08-01T01:10:43;100740.56;;;23.03;69.01
38054;BME280;23859;50.672;7.164;2022-08-01T01:15:55;100746.19;;;22.82;70.38
38054;BME280;23859;50.672;7.164;2022-08-01T01:18:47;100744.78;;;22.74;70.88
38054;BME280;23859;50.672;7.164;2022-08-01T01:26:43;100747.66;;;22.85;70.45
38054;BME280;23859;50.672;7.164;2022-08-01T01:29:28;100749.09;;;23.07;69.50
38054;BME280;23859;50.672;7.164;2022-08-01T01:32:04;100751.19;;;22.98;69.73
38054;BME280;23859;50.672;7.164;2022-08-01T01:34:34;100751.22;;;23.05;69.65
38054;BME280;23859;50.672;7.164;2022-08-01T01:37:03;100752.88;;;22.93;70.43
38054;BME280;23859;50.672;7.164;2022-08-01T01:39:31;100754.56;;;23.00;69.65
38054;BME280;23859;50.672;7.164;2022-08-01T01:41:58;100747.66;;;22.98;69.98
38054;BME280;23859;50.672;7.164;2022-08-01T01:44:27;100751.84;;;22.94;70.25
38054;BME280;23859;50.672;7.164;2022-08-01T01:46:54;100757.44;;;22.92;70.46
38054;BME280;23859;50.672;7.164;2022-08-01T01:49:24;100752.06;;;22.79;71.34
38054;BME280;23859;50.672;7.164;2022-08-01T01:51:54;100751.44;;;22.77;70.85
38054;BME280;23859;50.672;7.164;2022-08-01T01:54:29;100750.00;;;22.56;71.59
38054;BME280;23859;50.672;7.164;2022-08-01T01:56:58;100753.09;;;22.66;71.94
38054;BME280;23859;50.672;7.164;2022-08-01T01:59:30;100750.19;;;22.54;72.52
38054;BME280;23859;50.672;7.164;2022-08-01T02:01:59;100749.97;;;22.75;71.88
38054;BME280;23859;50.672;7.164;2022-08-01T02:04:27;100751.84;;;22.81;71.22
38054;BME280;23859;50.672;7.164;2022-08-01T02:06:55;100749.38;;;22.73;72.03
38054;BME280;23859;50.672;7.164;2022-08-01T02:09:23;100746.88;;;22.65;72.55
38054;BME280;23859;50.672;7.164;2022-08-01T02:11:53;100751.88;;;22.68;72.37
38054;BME280;23859;50.672;7.164;2022-08-01T02:14:21;100762.31;;;22.65;72.85
38054;BME280;23859;50.672;7.164;2022-08-01T02:16:49;100755.41;;;22.81;72.08
38054;BME280;23859;50.672;7.164;2022-08-01T02:19:17;100672.22;;;22.24;71.94
38054;BME280;23859;50.672;7.164;2022-08-01T02:21:57;100754.16;;;22.58;73.04
38054;BME280;23859;50.672;7.164;2022-08-01T02:24:36;100751.66;;;22.70;72.93
38054;BME280;23859;50.672;7.164;2022-08-01T02:27:09;100748.34;;;22.61;73.14
38054;BME280;23859;50.672;7.164;2022-08-01T02:29:42;100751.66;;;22.63;73.41
38054;BME280;23859;50.672;7.164;2022-08-01T02:32:14;100749.38;;;22.54;73.74
38054;BME280;23859;50.672;7.164;2022-08-01T02:34:42;100755.00;;;22.39;74.60
38054;BME280;23859;50.672;7.164;2022-08-01T02:37:11;100756.88;;;22.39;74.76
38054;BME280;23859;50.672;7.164;2022-08-01T02:39:39;100747.72;;;22.46;74.00
38054;BME280;23859;50.672;7.164;2022-08-01T02:42:08;100746.88;;;22.39;74.73
38054;BME280;23859;50.672;7.164;2022-08-01T02:44:39;100755.41;;;22.36;75.09
38054;BME280;23859;50.672;7.164;2022-08-01T02:47:07;100751.03;;;22.29;75.21
38054;BME280;23859;50.672;7.164;2022-08-01T02:49:47;100752.53;;;22.38;75.00
38054;BME280;23859;50.672;7.164;2022-08-01T02:52:16;100751.44;;;22.39;75.09
38054;BME280;23859;50.672;7.164;2022-08-01T02:54:46;100756.47;;;22.35;75.46
38054;BME280;23859;50.672;7.164;2022-08-01T02:57:13;100755.41;;;22.17;76.51
38054;BME280;23859;50.672;7.164;2022-08-01T02:59:42;100755.56;;;22.15;76.40
38054;BME280;23859;50.672;7.164;2022-08-01T03:02:10;100753.75;;;22.29;75.84
38054;BME280;23859;50.672;7.164;2022-08-01T03:04:38;100760.44;;;22.33;75.70
38054;BME280;23859;50.672;7.164;2022-08-01T03:07:08;100755.19;;;22.31;76.24
38054;BME280;23859;50.672;7.164;2022-08-01T03:09:41;100756.47;;;22.35;75.87
38054;BME280;23859;50.672;7.164;2022-08-01T03:12:15;100756.47;;;22.35;75.84
38054;BME280;23859;50.672;7.164;2022-08-01T03:14:44;100758.75;;;22.32;76.50
38054;BME280;23859;50.672;7.164;2022-08-01T03:17:11;100754.19;;;22.45;75.50
38054;BME280;23859;50.672;7.164;2022-08-01T03:19:39;100757.94;;;22.38;75.68
38054;BME280;23859;50.672;7.164;2022-08-01T03:22:08;100753.56;;;22.30;76.37
38054;BME280;23859;50.672;7.164;2022-08-01T03:24:38;100756.63;;;22.14;76.63
38054;BME280;23859;50.672;7.164;2022-08-01T03:27:05;100756.81;;;22.07;77.51
38054;BME280;23859;50.672;7.164;2022-08-01T03:29:33;100748.50;;;22.14;77.16
38054;BME280;23859;50.672;7.164;2022-08-01T03:32:01;100749.94;;;22.10;77.50
38054;BME280;23859;50.672;7.164;2022-08-01T03:34:28;100754.75;;;22.15;76.83
38054;BME280;23859;50.672;7.164;2022-08-01T03:37:09;100765.38;;;22.23;77.10
38054;BME280;23859;50.672;7.164;2022-08-01T03:39:50;100753.28;;;22.12;77.21
38054;BME280;23859;50.672;7.164;2022-08-01T03:42:20;100757.66;;;22.26;76.82
38054;BME280;23859;50.672;7.164;2022-08-01T03:45:03;100764.09;;;21.93;78.19
38054;BME280;23859;50.672;7.164;2022-08-01T03:47:32;100761.00;;;22.03;77.92
38054;BME280;23859;50.672;7.164;2022-08-01T03:50:02;100764.94;;;22.13;77.28
38054;BME280;23859;50.672;7.164;2022-08-01T03:52:30;100768.50;;;22.20;77.22
38054;BME280;23859;50.672;7.164;2022-08-01T03:55:02;100762.44;;;22.11;77.60
38054;BME280;23859;50.672;7.164;2022-08-01T03:57:31;100765.38;;;22.10;77.89
38054;BME280;23859;50.672;7.164;2022-08-01T03:59:59;100766.19;;;21.98;78.36
38054;BME280;23859;50.672;7.164;2022-08-01T04:02:26;100768.09;;;22.16;77.83
38054;BME280;23859;50.672;7.164;2022-08-01T04:04:52;100767.88;;;22.18;77.25
38054;BME280;23859;50.672;7.164;2022-08-01T04:07:27;100764.94;;;22.13;77.70
38054;BME280;23859;50.672;7.164;2022-08-01T04:09:53;100762.84;;;22.02;78.08
38054;BME280;23859;50.672;7.164;2022-08-01T04:12:19;100766.19;;;22.04;78.50
38054;BME280;23859;50.672;7.164;2022-08-01T04:14:46;100762.44;;;21.99;78.58
38054;BME280;23859;50.672;7.164;2022-08-01T04:17:13;100763.47;;;22.04;78.31
38054;BME280;23859;50.672;7.164;2022-08-01T04:19:39;100764.72;;;22.08;77.89
38054;BME280;23859;50.672;7.164;2022-08-01T04:22:06;100768.69;;;22.06;78.53
38054;BME280;23859;50.672;7.164;2022-08-01T04:24:33;100763.91;;;22.01;78.68
38054;BME280;23859;50.672;7.164;2022-08-01T04:27:02;100661.72;;;21.43;78.37
38054;BME280;23859;50.672;7.164;2022-08-01T04:29:30;100766.63;;;22.01;78.87
38054;BME280;23859;50.672;7.164;2022-08-01T04:31:59;100758.66;;;21.93;79.35
38054;BME280;23859;50.672;7.164;2022-08-01T04:34:29;100769.50;;;22.00;78.94
38054;BME280;23859;50.672;7.164;2022-08-01T04:36:56;100768.88;;;21.91;79.36
38054;BME280;23859;50.672;7.164;2022-08-01T04:39:28;100771.78;;;21.96;79.66
38054;BME280;23859;50.672;7.164;2022-08-01T04:41:59;100777.03;;;21.98;79.18
38054;BME280;23859;50.672;7.164;2022-08-01T04:44:26;100778.28;;;22.02;78.86
38054;BME280;23859;50.672;7.164;2022-08-01T04:46:54;100774.75;;;22.01;79.47
38054;BME280;23859;50.672;7.164;2022-08-01T04:49:21;100784.34;;;22.10;78.83
38054;BME280;23859;50.672;7.164;2022-08-01T04:51:54;100782.44;;;21.98;79.28
38054;BME280;23859;50.672;7.164;2022-08-01T04:54:33;100789.09;;;22.08;78.94
38054;BME280;23859;50.672;7.164;2022-08-01T04:57:00;100790.13;;;22.07;79.23
38054;BME280;23859;50.672;7.164;2022-08-01T04:59:27;100791.59;;;22.03;79.52
38054;BME280;23859;50.672;7.164;2022-08-01T05:02:23;100783.91;;;22.07;79.13
38054;BME280;23859;50.672;7.164;2022-08-01T05:04:50;100783.31;;;22.17;78.18
38054;BME280;23859;50.672;7.164;2022-08-01T05:07:16;100783.69;;;22.08;79.21
38054;BME280;23859;50.672;7.164;2022-08-01T05:09:42;100786.63;;;22.13;78.39
38054;BME280;23859;50.672;7.164;2022-08-01T05:12:09;100792.47;;;22.16;78.26
38054;BME280;23859;50.672;7.164;2022-08-01T05:14:36;100793.28;;;22.10;78.54
38054;BME280;23859;50.672;7.164;2022-08-01T05:17:04;100791.16;;;22.00;79.25
38054;BME280;23859;50.672;7.164;2022-08-01T05:19:30;100795.16;;;22.10;78.93
38054;BME280;23859;50.672;7.164;2022-08-01T05:22:04;100795.38;;;22.09;79.21
38054;BME280;23859;50.672;7.164;2022-08-01T05:24:31;100801.22;;;22.25;78.85
38054;BME280;23859;50.672;7.164;2022-08-01T05:26:58;100801.06;;;22.33;77.76
38054;BME280;23859;50.672;7.164;2022-08-01T05:29:25;100806.28;;;22.41;77.69
38054;BME280;23859;50.672;7.164;2022-08-01T05:31:51;100786.25;;;22.29;77.83
38054;BME280;23859;50.672;7.164;2022-08-01T05:34:19;100802.31;;;22.37;77.62
38054;BME280;23859;50.672;7.164;2022-08-01T05:36:45;100804.56;;;22.27;78.17
38054;BME280;23859;50.672;7.164;2022-08-01T05:39:12;100799.16;;;22.27;78.55
38054;BME280;23859;50.672;7.164;2022-08-01T05:41:38;100811.69;;;22.34;78.53
38054;BME280;23859;50.672;7.164;2022-08-01T05:44:05;100812.34;;;22.43;77.79
38054;BME280;23859;50.672;7.164;2022-08-01T05:46:31;100807.13;;;22.41;77.51
38054;BME280;23859;50.672;7.164;2022-08-01T05:48:58;100812.13;;;22.44;77.63
38054;BME280;23859;50.672;7.164;2022-08-01T05:51:25;100815.47;;;22.46;78.17
38054;BME280;23859;50.672;7.164;2022-08-01T05:53:52;100813.16;;;22.37;78.65
38054;BME280;23859;50.672;7.164;2022-08-01T05:56:18;100812.13;;;22.38;78.46
38054;BME280;23859;50.672;7.164;2022-08-01T05:58:44;100814.63;;;22.46;78.12
38054;BME280;23859;50.672;7.164;2022-08-01T06:01:10;100815.03;;;22.43;77.65
38054;BME280;23859;50.672;7.164;2022-08-01T06:03:36;100810.44;;;22.50;77.92
38054;BME280;23859;50.672;7.164;2022-08-01T06:06:03;100813.41;;;22.55;78.23
38054;BME280;23859;50.672;7.164;2022-08-01T06:08:30;100816.72;;;22.70;77.13
38054;BME280;23859;50.672;7.164;2022-08-01T06:10:56;100806.28;;;22.86;76.48
38054;BME280;23859;50.672;7.164;2022-08-01T06:13:22;100805.84;;;22.95;75.53
38054;BME280;23859;50.672;7.164;2022-08-01T06:15:49;100820.88;;;22.91;75.79
38054;BME280;23859;50.672;7.164;2022-08-01T06:18:15;100819.63;;;22.87;75.70
38054;BME280;23859;50.672;7.164;2022-08-01T06:20:42;100812.53;;;22.99;75.53
38054;BME280;23859;50.672;7.164;2022-08-01T06:23:08;100824.63;;;22.90;75.63
38054;BME280;23859;50.672;7.164;2022-08-01T06:25:35;100825.47;;;22.91;75.72
38054;BME280;23859;50.672;7.164;2022-08-01T06:28:01;100821.28;;;22.88;75.92
38054;BME280;23859;50.672;7.164;2022-08-01T06:30:27;100825.47;;;22.91;76.63
38054;BME280;23859;50.672;7.164;2022-08-01T06:32:54;100821.09;;;22.83;76.72
38054;BME280;23859;50.672;7.164;2022-08-01T06:35:21;100825.25;;;22.92;76.04
38054;BME280;23859;50.672;7.164;2022-08-01T06:37:47;100811.28;;;22.89;75.86
38054;BME280;23859;50.672;7.164;2022-08-01T06:40:15;100807.94;;;23.00;76.10
38054;BME280;23859;50.672;7.164;2022-08-01T06:42:41;100809.38;;;22.96;76.30
38054;BME280;23859;50.672;7.164;2022-08-01T06:45:10;100814.88;;;23.02;75.95
38054;BME280;23859;50.672;7.164;2022-08-01T06:47:37;100819.22;;;23.16;74.76
38054;BME280;23859;50.672;7.164;2022-08-01T06:50:05;100818.16;;;23.17;75.15
38054;BME280;23859;50.672;7.164;2022-08-01T06:52:31;100824.00;;;23.14;76.37
38054;BME280;23859;50.672;7.164;2022-08-01T06:54:57;100818.13;;;23.37;74.42
38054;BME280;23859;50.672;7.164;2022-08-01T06:57:23;100809.13;;;23.36;74.76
38054;BME280;23859;50.672;7.164;2022-08-01T06:59:50;100813.34;;;23.19;75.04
38054;BME280;23859;50.672;7.164;2022-08-01T07:02:16;100816.63;;;23.41;73.93
38054;BME280;23859;50.672;7.164;2022-08-01T07:04:42;100820.59;;;23.51;74.07
38054;BME280;23859;50.672;7.164;2022-08-01T07:07:08;100816.19;;;23.50;74.37
38054;BME280;23859;50.672;7.164;2022-08-01T07:09:34;100813.00;;;23.59;73.77
38054;BME280;23859;50.672;7.164;2022-08-01T07:12:00;100813.41;;;23.69;73.20
38054;BME280;23859;50.672;7.164;2022-08-01T07:14:26;100818.25;;;23.61;73.35
38054;BME280;23859;50.672;7.164;2022-08-01T07:16:52;100821.88;;;23.36;73.89
38054;BME280;23859;50.672;7.164;2022-08-01T07:19:19;100820.88;;;23.17;74.66
38054;BME280;23859;50.672;7.164;2022-08-01T07:21:45;100821.06;;;23.35;74.21
38054;BME280;23859;50.672;7.164;2022-08-01T07:24:13;100823.91;;;23.53;73.98
38054;BME280;23859;50.672;7.164;2022-08-01T07:26:45;100824.59;;;23.36;73.93
38054;BME280;23859;50.672;7.164;2022-08-01T07:29:11;100827.00;;;23.69;72.94
38054;BME280;23859;50.672;7.164;2022-08-01T07:31:37;100830.22;;;23.97;72.21
38054;BME280;23859;50.672;7.164;2022-08-01T07:34:04;100829.84;;;23.87;71.34
38054;BME280;23859;50.672;7.164;2022-08-01T07:36:30;100824.63;;;23.86;71.83
38054;BME280;23859;50.672;7.164;2022-08-01T07:38:56;100837.88;;;23.56;72.15
38054;BME280;23859;50.672;7.164;2022-08-01T07:41:22;100835.50;;;23.03;74.37
38054;BME280;23859;50.672;7.164;2022-08-01T07:43:49;100833.81;;;23.22;73.92
38054;BME280;23859;50.672;7.164;2022-08-01T07:46:15;100839.22;;;23.28;73.84
38054;BME280;23859;50.672;7.164;2022-08-01T07:48:42;100836.03;;;23.50;73.51
38054;BME280;23859;50.672;7.164;2022-08-01T07:51:08;100831.56;;;23.82;72.18
38054;BME280;23859;50.672;7.164;2022-08-01T07:53:36;100834.78;;;24.10;71.37
38054;BME280;23859;50.672;7.164;2022-08-01T07:56:02;100831.25;;;24.64;69.08
38054;BME280;23859;50.672;7.164;2022-08-01T07:58:30;100833.00;;;25.32;66.67
38054;BME280;23859;50.672;7.164;2022-08-01T08:00:56;100835.09;;;25.30;64.76
38054;BME280;23859;50.672;7.164;2022-08-01T08:03:22;100840.44;;;24.94;65.51
38054;BME280;23859;50.672;7.164;2022-08-01T08:05:48;100836.16;;;25.29;64.97
38054;BME280;23859;50.672;7.164;2022-08-01T08:08:14;100843.97;;;24.70;66.19
38054;BME280;23859;50.672;7.164;2022-08-01T08:10:42;100841.81;;;25.03;66.54
38054;BME280;23859;50.672;7.164;2022-08-01T08:13:08;100838.50;;;25.43;64.58
38054;BME280;23859;50.672;7.164;2022-08-01T08:15:35;100837.00;;;25.47;63.78
38054;BME280;23859;50.672;7.164;2022-08-01T08:18:02;100839.91;;;25.10;64.99
38054;BME280;23859;50.672;7.164;2022-08-01T08:20:28;100840.28;;;24.89;65.18
38054;BME280;23859;50.672;7.164;2022-08-01T08:22:55;100845.91;;;24.32;66.78
38054;BME280;23859;50.672;7.164;2022-08-01T08:25:24;100840.47;;;24.32;67.28
38054;BME280;23859;50.672;7.164;2022-08-01T08:27:51;100839.59;;;24.38;66.98
38054;BME280;23859;50.672;7.164;2022-08-01T08:30:17;100847.56;;;24.33;67.23
38054;BME280;23859;50.672;7.164;2022-08-01T08:32:44;100843.75;;;24.47;67.28
38054;BME280;23859;50.672;7.164;2022-08-01T08:35:10;100844.31;;;24.56;67.04
38054;BME280;23859;50.672;7.164;2022-08-01T08:37:37;100844.03;;;24.64;66.64
38054;BME280;23859;50.672;7.164;2022-08-01T08:40:05;100839.56;;;25.00;64.42
38054;BME280;23859;50.672;7.164;2022-08-01T08:42:31;100844.06;;;24.88;65.67
38054;BME280;23859;50.672;7.164;2022-08-01T08:44:57;100849.00;;;24.73;65.09
38054;BME280;23859;50.672;7.164;2022-08-01T08:47:24;100849.81;;;24.98;64.97
38054;BME280;23859;50.672;7.164;2022-08-01T08:49:53;100849.00;;;25.22;64.27
38054;BME280;23859;50.672;7.164;2022-08-01T08:52:21;100844.47;;;25.34;64.05
38054;BME280;23859;50.672;7.164;2022-08-01T08:54:48;100855.81;;;24.82;65.54
38054;BME280;23859;50.672;7.164;2022-08-01T08:57:15;100864.72;;;25.20;64.01
38054;BME280;23859;50.672;7.164;2022-08-01T08:59:43;100866.53;;;25.01;64.00
38054;BME280;23859;50.672;7.164;2022-08-01T09:02:10;100865.28;;;25.28;63.03
38054;BME280;23859;50.672;7.164;2022-08-01T09:04:37;100856.94;;;25.23;63.17
38054;BME280;23859;50.672;7.164;2022-08-01T09:07:05;100871.13;;;25.07;63.61
38054;BME280;23859;50.672;7.164;2022-08-01T09:09:32;100871.88;;;24.90;64.37
38054;BME280;23859;50.672;7.164;2022-08-01T09:11:58;100853.88;;;24.65;65.04
38054;BME280;23859;50.672;7.164;2022-08-01T09:14:25;100868.63;;;24.75;64.82
38054;BME280;23859;50.672;7.164;2022-08-01T09:17:04;100866.13;;;24.74;65.21
38054;BME280;23859;50.672;7.164;2022-08-01T09:19:36;100875.56;;;24.71;65.86
38054;BME280;23859;50.672;7.164;2022-08-01T09:22:05;100868.75;;;24.62;65.78
38054;BME280;23859;50.672;7.164;2022-08-01T09:24:32;100870.22;;;24.89;64.73
38054;BME280;23859;50.672;7.164;2022-08-01T09:26:59;100867.13;;;25.10;64.65
38054;BME280;23859;50.672;7.164;2022-08-01T09:29:29;100864.09;;;25.60;62.99
38054;BME280;23859;50.672;7.164;2022-08-01T09:31:56;100862.19;;;25.60;62.82
38054;BME280;23859;50.672;7.164;2022-08-01T09:34:26;100872.97;;;25.73;60.93
38054;BME280;23859;50.672;7.164;2022-08-01T09:36:58;100860.44;;;26.49;59.69
38054;BME280;23859;50.672;7.164;2022-08-01T09:39:26;100861.03;;;26.91;57.69
38054;BME280;23859;50.672;7.164;2022-08-01T09:41:54;100866.47;;;26.80;58.08
38054;BME280;23859;50.672;7.164;2022-08-01T09:44:40;100862.28;;;26.66;58.84
38054;BME280;23859;50.672;7.164;2022-08-01T09:47:07;100857.72;;;26.20;58.44
38054;BME280;23859;50.672;7.164;2022-08-01T09:49:35;100858.59;;;26.31;59.41
38054;BME280;23859;50.672;7.164;2022-08-01T09:54:41;100861.53;;;26.59;58.50
38054;BME280;23859;50.672;7.164;2022-08-01T09:57:15;100858.69;;;27.06;56.96
38054;BME280;23859;50.672;7.164;2022-08-01T09:59:45;100861.19;;;27.08;55.67
38054;BME280;23859;50.672;7.164;2022-08-01T10:02:13;100856.50;;;26.86;56.70
38054;BME280;23859;50.672;7.164;2022-08-01T10:04:51;100856.63;;;26.79;57.08
38054;BME280;23859;50.672;7.164;2022-08-01T10:07:18;100859.78;;;26.65;57.42
38054;BME280;23859;50.672;7.164;2022-08-01T10:09:45;100766.84;;;26.37;56.78
38054;BME280;23859;50.672;7.164;2022-08-01T10:12:19;100859.06;;;27.33;55.80
38054;BME280;23859;50.672;7.164;2022-08-01T10:14:47;100850.84;;;27.67;55.16
38054;BME280;23859;50.672;7.164;2022-08-01T10:17:18;100852.88;;;27.14;54.92
38054;BME280;23859;50.672;7.164;2022-08-01T10:19:44;100855.25;;;26.59;57.33
38054;BME280;23859;50.672;7.164;2022-08-01T10:22:13;100851.66;;;26.47;55.86
38054;BME280;23859;50.672;7.164;2022-08-01T10:24:45;100848.63;;;26.55;57.14
38054;BME280;23859;50.672;7.164;2022-08-01T10:27:15;100850.00;;;26.46;58.15
38054;BME280;23859;50.672;7.164;2022-08-01T10:29:57;100842.19;;;25.73;59.39
38054;BME280;23859;50.672;7.164;2022-08-01T10:32:32;100833.25;;;26.13;59.70
38054;BME280;23859;50.672;7.164;2022-08-01T10:35:01;100834.69;;;26.16;58.76
38054;BME280;23859;50.672;7.164;2022-08-01T10:37:27;100834.91;;;26.14;58.56
38054;BME280;23859;50.672;7.164;2022-08-01T10:39:54;100834.38;;;26.53;57.13
38054;BME280;23859;50.672;7.164;2022-08-01T10:42:21;100831.31;;;26.84;56.18
38054;BME280;23859;50.672;7.164;2022-08-01T10:44:48;100834.19;;;26.77;54.91
38054;BME280;23859;50.672;7.164;2022-08-01T10:47:18;100834.06;;;26.84;55.46
38054;BME280;23859;50.672;7.164;2022-08-01T10:50:00;100827.53;;;26.85;55.30
38054;BME280;23859;50.672;7.164;2022-08-01T10:52:28;100831.31;;;26.61;56.00
38054;BME280;23859;50.672;7.164;2022-08-01T10:55:07;100817.97;;;27.05;54.54
38054;BME280;23859;50.672;7.164;2022-08-01T10:57:47;100817.25;;;25.87;57.41
38054;BME280;23859;50.672;7.164;2022-08-01T11:00:18;100820.34;;;25.91;58.39
38054;BME280;23859;50.672;7.164;2022-08-01T11:03:00;100822.41;;;25.77;59.04
38054;BME280;23859;50.672;7.164;2022-08-01T11:05:27;100830.66;;;25.89;58.70
38054;BME280;23859;50.672;7.164;2022-08-01T11:07:54;100830.88;;;25.87;57.42
38054;BME280;23859;50.672;7.164;2022-08-01T11:10:41;100835.88;;;25.72;58.34
38054;BME280;23859;50.672;7.164;2022-08-01T11:13:11;100837.69;;;25.43;59.97
38054;BME280;23859;50.672;7.164;2022-08-01T11:15:39;100846.56;;;25.14;61.20
38054;BME280;23859;50.672;7.164;2022-08-01T11:21:01;100850.06;;;25.21;61.30
38054;BME280;23859;50.672;7.164;2022-08-01T11:23:29;100848.78;;;25.23;61.97
38054;BME280;23859;50.672;7.164;2022-08-01T11:28:23;100824.50;;;25.93;58.96
38054;BME280;23859;50.672;7.164;2022-08-01T11:33:18;100821.19;;;27.36;54.87
38054;BME280;23859;50.672;7.164;2022-08-01T11:38:43;100822.34;;;29.07;49.58
38054;BME280;23859;50.672;7.164;2022-08-01T11:41:20;100830.22;;;29.20;49.56
38054;BME280;23859;50.672;7.164;2022-08-01T11:44:07;100827.31;;;29.43;48.67
38054;BME280;23859;50.672;7.164;2022-08-01T11:46:54;100827.09;;;28.95;48.60
38054;BME280;23859;50.672;7.164;2022-08-01T11:49:43;100818.25;;;28.44;50.43
38054;BME280;23859;50.672;7.164;2022-08-01T11:54:54;100810.03;;;28.44;50.10
38054;BME280;23859;50.672;7.164;2022-08-01T11:57:21;100818.00;;;27.90;52.24
38054;BME280;23859;50.672;7.164;2022-08-01T11:59:50;100820.44;;;27.63;53.04
38054;BME280;23859;50.672;7.164;2022-08-01T12:02:18;100823.81;;;27.08;54.12
38054;BME280;23859;50.672;7.164;2022-08-01T12:04:46;100826.56;;;26.68;54.75
38054;BME280;23859;50.672;7.164;2022-08-01T12:07:16;100827.47;;;26.50;55.83
38054;BME280;23859;50.672;7.164;2022-08-01T12:09:42;100834.00;;;26.49;55.99
38054;BME280;23859;50.672;7.164;2022-08-01T12:12:09;100831.97;;;25.86;57.56
38054;BME280;23859;50.672;7.164;2022-08-01T12:14:36;100838.47;;;26.15;58.55
38054;BME280;23859;50.672;7.164;2022-08-01T12:17:02;100833.53;;;26.23;54.79
38054;BME280;23859;50.672;7.164;2022-08-01T12:19:28;100835.63;;;26.39;54.70
38054;BME280;23859;50.672;7.164;2022-08-01T12:22:12;100838.53;;;26.55;55.19
38054;BME280;23859;50.672;7.164;2022-08-01T12:24:40;100839.00;;;26.23;56.17
38054;BME280;23859;50.672;7.164;2022-08-01T12:27:09;100837.44;;;26.16;56.12
38054;BME280;23859;50.672;7.164;2022-08-01T12:29:40;100841.63;;;26.00;57.52
38054;BME280;23859;50.672;7.164;2022-08-01T12:32:25;100836.84;;;25.96;57.38
38054;BME280;23859;50.672;7.164;2022-08-01T12:34:53;100837.16;;;25.88;57.66
38054;BME280;23859;50.672;7.164;2022-08-01T12:37:20;100841.03;;;25.80;57.84
38054;BME280;23859;50.672;7.164;2022-08-01T12:39:46;100846.34;;;25.75;58.38
38054;BME280;23859;50.672;7.164;2022-08-01T12:42:13;100838.81;;;25.71;57.80
38054;BME280;23859;50.672;7.164;2022-08-01T12:44:42;100841.34;;;25.72;58.23
38054;BME280;23859;50.672;7.164;2022-08-01T12:47:09;100841.41;;;25.84;57.81
38054;BME280;23859;50.672;7.164;2022-08-01T12:49:37;100840.72;;;25.88;57.94
38054;BME280;23859;50.672;7.164;2022-08-01T12:52:04;100767.16;;;25.70;56.90
38054;BME280;23859;50.672;7.164;2022-08-01T12:54:59;100843.88;;;26.62;57.16
38054;BME280;23859;50.672;7.164;2022-08-01T12:57:23;100843.78;;;26.80;57.21
38054;BME280;23859;50.672;7.164;2022-08-01T12:59:53;100839.69;;;26.19;58.14
38054;BME280;23859;50.672;7.164;2022-08-01T13:02:19;100836.47;;;26.21;58.91
38054;BME280;23859;50.672;7.164;2022-08-01T13:04:51;100830.22;;;26.32;59.53
38054;BME280;23859;50.672;7.164;2022-08-01T13:07:18;100836.28;;;26.52;59.51
38054;BME280;23859;50.672;7.164;2022-08-01T13:09:50;100832.50;;;26.65;59.39
38054;BME280;23859;50.672;7.164;2022-08-01T13:12:17;100826.97;;;26.83;57.79
38054;BME280;23859;50.672;7.164;2022-08-01T13:14:43;100834.25;;;27.00;57.68
38054;BME280;23859;50.672;7.164;2022-08-01T13:17:09;100828.63;;;27.41;57.29
38054;BME280;23859;50.672;7.164;2022-08-01T13:19:45;100825.31;;;27.39;56.65
38054;BME280;23859;50.672;7.164;2022-08-01T13:22:12;100834.66;;;27.54;55.19
38054;BME280;23859;50.672;7.164;2022-08-01T13:24:38;100827.47;;;27.37;55.87
38054;BME280;23859;50.672;7.164;2022-08-01T13:27:05;100831.38;;;27.52;55.74